Cuor Di Leone — V7YK2 — position and weather

sailwx.info

Track history (hours):
 
Tides and Currents Weather Stations Pressure Air Temp Water Temp Dewpoint Dewpoint Depression Visibility Wind Speed Wind Dir Waves Ship Positions

Cuor Di Leone

Last reported at 2018-Aug-20 04:52 UTC. Time now 2018-Aug-20 16:48 UTC.
Position N 38°51' E 001°31'.

Length 49 m; draft 3 m.

Type: Other ship. MMSI: 319013700.

Date/timePositionNaut miles runAvg speedWind from/ knotsBaromVisibWave heightAir tempDewpointWater temp
2018-Aug-20 04:52N 38°51' E 001°31'5910.8
2018-Aug-19 23:26N 39°14' E 002°41'510.8
2018-Aug-19 23:00N 39°16' E 002°46'810.7
2018-Aug-19 22:18N 39°19' E 002°55'3 8.7
2018-Aug-19 21:57N 39°20' E 002°59'0 0.1
2018-Aug-19 21:29N 39°20' E 002°59'0 0.0
2018-Aug-19 21:00N 39°20' E 002°59'0 0.0
2018-Aug-19 20:30N 39°20' E 002°59'0 0.0
2018-Aug-19 20:00N 39°20' E 002°59'0 0.0
2018-Aug-19 19:29N 39°20' E 002°59'0 0.0
2018-Aug-19 19:00N 39°20' E 002°59'0 0.0
2018-Aug-19 18:30N 39°20' E 002°59'0 0.0
2018-Aug-19 17:58N 39°20' E 002°59'0 0.0
2018-Aug-19 17:30N 39°20' E 002°59'0 0.0
2018-Aug-19 17:00N 39°20' E 002°59'0 0.0
2018-Aug-19 16:28N 39°20' E 002°59'0 0.1
2018-Aug-19 16:00N 39°20' E 002°59'0 0.0
2018-Aug-19 15:30N 39°20' E 002°59'0 0.1
2018-Aug-19 14:54N 39°20' E 002°59'0 0.0
2018-Aug-19 14:18N 39°20' E 002°59'0 0.0
2018-Aug-19 13:51N 39°20' E 002°59'0 0.0
2018-Aug-19 13:30N 39°20' E 002°59'1 2.6
2018-Aug-19 12:58N 39°21' E 002°57'511.1
2018-Aug-19 12:31N 39°21' E 002°50'510.5
2018-Aug-19 12:00N 39°23' E 002°44'611.2
2018-Aug-19 11:30N 39°28' E 002°41'510.6
2018-Aug-19 11:00N 39°33' E 002°38'1 1.2
2018-Aug-19 10:30N 39°34' E 002°38'0 0.0
2018-Aug-19 10:00N 39°34' E 002°38'0 0.0
2018-Aug-19 09:30N 39°34' E 002°38'0 0.0
2018-Aug-19 09:01N 39°34' E 002°38'0 0.0
2018-Aug-19 08:30N 39°34' E 002°38'0 0.0
2018-Aug-19 08:00N 39°34' E 002°38'0 0.0
2018-Aug-19 07:30N 39°34' E 002°38'0 0.0
2018-Aug-19 07:00N 39°34' E 002°38'0 0.0
2018-Aug-19 06:31N 39°34' E 002°38'0 0.0
2018-Aug-19 06:00N 39°34' E 002°38'0 0.0
2018-Aug-19 05:31N 39°34' E 002°38'0 0.0
2018-Aug-19 05:00N 39°34' E 002°38'0 0.0
2018-Aug-19 04:30N 39°34' E 002°38'0 0.0
2018-Aug-19 04:01N 39°34' E 002°38'0 0.0
2018-Aug-19 03:30N 39°34' E 002°38'0 0.0
2018-Aug-19 03:00N 39°34' E 002°38'0 0.0
2018-Aug-19 02:30N 39°34' E 002°38'0 0.0
2018-Aug-19 02:00N 39°34' E 002°38'0 0.0
2018-Aug-19 01:30N 39°34' E 002°38'0 0.0
2018-Aug-19 01:00N 39°34' E 002°38'0 0.0
2018-Aug-19 00:30N 39°34' E 002°38'0 0.0
2018-Aug-19 00:00N 39°34' E 002°38'0 0.0
2018-Aug-18 23:30N 39°34' E 002°38'0 0.0
2018-Aug-18 23:00N 39°34' E 002°38'0 0.0
2018-Aug-18 22:30N 39°34' E 002°38'0 0.0
2018-Aug-18 22:01N 39°34' E 002°38'0 0.0
2018-Aug-18 21:30N 39°34' E 002°38'0 0.0
2018-Aug-18 21:00N 39°34' E 002°38'0 0.0
2018-Aug-18 20:30N 39°34' E 002°38'0 0.0
2018-Aug-18 20:00N 39°34' E 002°38'0 0.0
2018-Aug-18 19:29N 39°34' E 002°38'0 0.0
2018-Aug-18 18:53N 39°34' E 002°38'0 0.0
2018-Aug-18 18:30N 39°34' E 002°38'0 0.0
2018-Aug-18 18:01N 39°34' E 002°38'0 0.5
2018-Aug-18 17:30N 39°33' E 002°38'4 8.0
2018-Aug-18 17:00N 39°32' E 002°34'0 0.5
2018-Aug-18 16:30N 39°31' E 002°33'0 0.0
2018-Aug-18 15:59N 39°31' E 002°33'0 0.0
2018-Aug-18 15:30N 39°31' E 002°33'0 0.0
2018-Aug-18 15:01N 39°31' E 002°33'0 0.0
2018-Aug-18 14:30N 39°31' E 002°33'0 0.1
2018-Aug-18 14:00N 39°31' E 002°33'0 0.0
2018-Aug-18 13:30N 39°31' E 002°33'0 0.0
2018-Aug-18 13:01N 39°31' E 002°33'0 0.0
2018-Aug-18 12:27N 39°31' E 002°33'0 0.0
2018-Aug-18 12:01N 39°31' E 002°33'0 0.2
2018-Aug-18 11:30N 39°31' E 002°33'510.7
2018-Aug-18 11:00N 39°27' E 002°29'20 8.4
2018-Aug-18 08:37N 39°46' E 002°37'112.3
2018-Aug-18 08:31N 39°47' E 002°38'  
2018-Aug-13 11:42N 43°28' E 006°58'313.2
2018-Aug-13 11:31N 43°30' E 006°60'3 5.0
2018-Aug-13 10:59N 43°32' E 007°02'0 0.0
2018-Aug-13 10:30N 43°32' E 007°01'0 0.0
2018-Aug-13 10:00N 43°32' E 007°01'0 0.0
2018-Aug-13 09:30N 43°32' E 007°01'0 0.0
2018-Aug-13 09:01N 43°32' E 007°02'0 0.1
2018-Aug-13 08:31N 43°32' E 007°02'0 0.0
2018-Aug-13 08:00N 43°32' E 007°02'2 3.6
2018-Aug-13 07:31N 43°31' E 006°60'2 3.6
2018-Aug-13 07:01N 43°30' E 007°01'3 5.4
2018-Aug-13 06:31N 43°31' E 007°04'1 1.6
2018-Aug-13 06:00N 43°32' E 007°03'0 0.0
2018-Aug-13 05:31N 43°32' E 007°03'0 0.1
2018-Aug-13 05:00N 43°32' E 007°03'0 0.0
2018-Aug-13 04:31N 43°32' E 007°03'0 0.0
2018-Aug-13 04:00N 43°32' E 007°03'0 0.0
2018-Aug-13 03:30N 43°32' E 007°03'0 0.0
2018-Aug-13 03:01N 43°32' E 007°03'0 0.0
2018-Aug-13 02:31N 43°32' E 007°03'0 0.0
2018-Aug-13 02:00N 43°32' E 007°03'0 0.0
2018-Aug-13 01:31N 43°32' E 007°03'0 0.0
2018-Aug-13 01:00N 43°32' E 007°03'0 0.0
2018-Aug-13 00:30N 43°32' E 007°03'0 0.0
2018-Aug-13 00:01N 43°32' E 007°03'0 0.0
2018-Aug-12 23:31N 43°32' E 007°03'0 0.0
2018-Aug-12 23:00N 43°32' E 007°03'0 0.0
2018-Aug-12 22:31N 43°32' E 007°03'0 0.0
2018-Aug-12 22:00N 43°32' E 007°03'0 0.0
2018-Aug-12 21:31N 43°32' E 007°03'0 0.0
2018-Aug-12 21:00N 43°32' E 007°03'0 0.0
2018-Aug-12 20:31N 43°32' E 007°03'0 0.0
2018-Aug-12 20:01N 43°32' E 007°03'0 0.0
2018-Aug-12 19:30N 43°32' E 007°03'0 0.0
2018-Aug-12 19:01N 43°32' E 007°03'0 0.0
2018-Aug-12 18:31N 43°32' E 007°03'0 0.0
2018-Aug-12 18:01N 43°32' E 007°03'0 0.0
2018-Aug-12 17:31N 43°32' E 007°03'0 0.0
2018-Aug-12 17:01N 43°32' E 007°03'0 0.0
2018-Aug-12 16:30N 43°32' E 007°03'0 0.0
2018-Aug-12 16:00N 43°32' E 007°03'0 0.0
2018-Aug-12 15:30N 43°32' E 007°03'0 0.0
2018-Aug-12 15:00N 43°32' E 007°03'0 0.0
2018-Aug-12 14:30N 43°32' E 007°03'0 0.0
2018-Aug-12 13:59N 43°32' E 007°03'0 0.0
2018-Aug-12 13:30N 43°32' E 007°03'0 0.0
2018-Aug-12 13:00N 43°32' E 007°03'0 0.0
2018-Aug-12 12:30N 43°32' E 007°03'0 0.0
2018-Aug-12 12:00N 43°32' E 007°03'0 0.0
2018-Aug-12 11:31N 43°32' E 007°03'0 0.0
2018-Aug-12 11:00N 43°32' E 007°03'0 0.0
2018-Aug-12 10:30N 43°32' E 007°03'0 0.0
2018-Aug-12 10:01N 43°32' E 007°03'0 0.0
2018-Aug-12 09:31N 43°32' E 007°03'0 0.0
2018-Aug-12 09:01N 43°32' E 007°03'2 4.9
2018-Aug-12 08:30N 43°32' E 007°07'511.0
2018-Aug-12 08:01N 43°35' E 007°13'10 0.8
2018-Aug-11 19:41N 43°43' E 007°22'0 0.0
2018-Aug-11 17:44N 43°43' E 007°22'0 0.0
2018-Aug-11 17:18N 43°43' E 007°22'0 0.0
2018-Aug-11 16:12N 43°43' E 007°22'0 0.0
2018-Aug-11 15:58N 43°43' E 007°22'0 0.0
2018-Aug-11 15:31N 43°43' E 007°22'0 0.0
2018-Aug-11 13:54N 43°43' E 007°22'2 6.0
2018-Aug-11 13:31N 43°41' E 007°21'0 0.7
2018-Aug-11 12:56N 43°40' E 007°20'7 0.4
2018-Aug-10 16:58N 43°45' E 007°28'0 0.0
2018-Aug-10 16:30N 43°45' E 007°28'0 0.0
2018-Aug-10 16:00N 43°45' E 007°28'0 0.0
2018-Aug-10 15:29N 43°45' E 007°28'0 0.0
2018-Aug-10 14:56N 43°45' E 007°28'0 0.0
2018-Aug-10 14:30N 43°45' E 007°28'  
Track history (hours):
 
Tides and Currents Weather Stations Pressure Air Temp Water Temp Dewpoint Dewpoint Depression Visibility Wind Speed Wind Dir Waves Ship Positions

Cuor Di Leone

Last reported at 2018-Aug-20 04:52 UTC. Time now 2018-Aug-20 16:48 UTC.
Position N 38°51' E 001°31'.

Length 49 m; draft 3 m.

Type: Other ship. MMSI: 319013700.

Date/timePositionNaut miles runAvg speedWind from/ knotsBaromVisibWave heightAir tempDewpointWater temp
2018-Aug-20 04:52N 38°51' E 001°31'5910.8
2018-Aug-19 23:26N 39°14' E 002°41'510.8
2018-Aug-19 23:00N 39°16' E 002°46'810.7
2018-Aug-19 22:18N 39°19' E 002°55'3 8.7
2018-Aug-19 21:57N 39°20' E 002°59'0 0.1
2018-Aug-19 21:29N 39°20' E 002°59'0 0.0
2018-Aug-19 21:00N 39°20' E 002°59'0 0.0
2018-Aug-19 20:30N 39°20' E 002°59'0 0.0
2018-Aug-19 20:00N 39°20' E 002°59'0 0.0
2018-Aug-19 19:29N 39°20' E 002°59'0 0.0
2018-Aug-19 19:00N 39°20' E 002°59'0 0.0
2018-Aug-19 18:30N 39°20' E 002°59'0 0.0
2018-Aug-19 17:58N 39°20' E 002°59'0 0.0
2018-Aug-19 17:30N 39°20' E 002°59'0 0.0
2018-Aug-19 17:00N 39°20' E 002°59'0 0.0
2018-Aug-19 16:28N 39°20' E 002°59'0 0.1
2018-Aug-19 16:00N 39°20' E 002°59'0 0.0
2018-Aug-19 15:30N 39°20' E 002°59'0 0.1
2018-Aug-19 14:54N 39°20' E 002°59'0 0.0
2018-Aug-19 14:18N 39°20' E 002°59'0 0.0
2018-Aug-19 13:51N 39°20' E 002°59'0 0.0
2018-Aug-19 13:30N 39°20' E 002°59'1 2.6
2018-Aug-19 12:58N 39°21' E 002°57'511.1
2018-Aug-19 12:31N 39°21' E 002°50'510.5
2018-Aug-19 12:00N 39°23' E 002°44'611.2
2018-Aug-19 11:30N 39°28' E 002°41'510.6
2018-Aug-19 11:00N 39°33' E 002°38'1 1.2
2018-Aug-19 10:30N 39°34' E 002°38'0 0.0
2018-Aug-19 10:00N 39°34' E 002°38'0 0.0
2018-Aug-19 09:30N 39°34' E 002°38'0 0.0
2018-Aug-19 09:01N 39°34' E 002°38'0 0.0
2018-Aug-19 08:30N 39°34' E 002°38'0 0.0
2018-Aug-19 08:00N 39°34' E 002°38'0 0.0
2018-Aug-19 07:30N 39°34' E 002°38'0 0.0
2018-Aug-19 07:00N 39°34' E 002°38'0 0.0
2018-Aug-19 06:31N 39°34' E 002°38'0 0.0
2018-Aug-19 06:00N 39°34' E 002°38'0 0.0
2018-Aug-19 05:31N 39°34' E 002°38'0 0.0
2018-Aug-19 05:00N 39°34' E 002°38'0 0.0
2018-Aug-19 04:30N 39°34' E 002°38'0 0.0
2018-Aug-19 04:01N 39°34' E 002°38'0 0.0
2018-Aug-19 03:30N 39°34' E 002°38'0 0.0
2018-Aug-19 03:00N 39°34' E 002°38'0 0.0
2018-Aug-19 02:30N 39°34' E 002°38'0 0.0
2018-Aug-19 02:00N 39°34' E 002°38'0 0.0
2018-Aug-19 01:30N 39°34' E 002°38'0 0.0
2018-Aug-19 01:00N 39°34' E 002°38'0 0.0
2018-Aug-19 00:30N 39°34' E 002°38'0 0.0
2018-Aug-19 00:00N 39°34' E 002°38'0 0.0
2018-Aug-18 23:30N 39°34' E 002°38'0 0.0
2018-Aug-18 23:00N 39°34' E 002°38'0 0.0
2018-Aug-18 22:30N 39°34' E 002°38'0 0.0
2018-Aug-18 22:01N 39°34' E 002°38'0 0.0
2018-Aug-18 21:30N 39°34' E 002°38'0 0.0
2018-Aug-18 21:00N 39°34' E 002°38'0 0.0
2018-Aug-18 20:30N 39°34' E 002°38'0 0.0
2018-Aug-18 20:00N 39°34' E 002°38'0 0.0
2018-Aug-18 19:29N 39°34' E 002°38'0 0.0
2018-Aug-18 18:53N 39°34' E 002°38'0 0.0
2018-Aug-18 18:30N 39°34' E 002°38'0 0.0
2018-Aug-18 18:01N 39°34' E 002°38'0 0.5
2018-Aug-18 17:30N 39°33' E 002°38'4 8.0
2018-Aug-18 17:00N 39°32' E 002°34'0 0.5
2018-Aug-18 16:30N 39°31' E 002°33'0 0.0
2018-Aug-18 15:59N 39°31' E 002°33'0 0.0
2018-Aug-18 15:30N 39°31' E 002°33'0 0.0
2018-Aug-18 15:01N 39°31' E 002°33'0 0.0
2018-Aug-18 14:30N 39°31' E 002°33'0 0.1
2018-Aug-18 14:00N 39°31' E 002°33'0 0.0
2018-Aug-18 13:30N 39°31' E 002°33'0 0.0
2018-Aug-18 13:01N 39°31' E 002°33'0 0.0
2018-Aug-18 12:27N 39°31' E 002°33'0 0.0
2018-Aug-18 12:01N 39°31' E 002°33'0 0.2
2018-Aug-18 11:30N 39°31' E 002°33'510.7
2018-Aug-18 11:00N 39°27' E 002°29'20 8.4
2018-Aug-18 08:37N 39°46' E 002°37'112.3
2018-Aug-18 08:31N 39°47' E 002°38'  
2018-Aug-13 11:42N 43°28' E 006°58'313.2
2018-Aug-13 11:31N 43°30' E 006°60'3 5.0
2018-Aug-13 10:59N 43°32' E 007°02'0 0.0
2018-Aug-13 10:30N 43°32' E 007°01'0 0.0
2018-Aug-13 10:00N 43°32' E 007°01'0 0.0
2018-Aug-13 09:30N 43°32' E 007°01'0 0.0
2018-Aug-13 09:01N 43°32' E 007°02'0 0.1
2018-Aug-13 08:31N 43°32' E 007°02'0 0.0
2018-Aug-13 08:00N 43°32' E 007°02'2 3.6
2018-Aug-13 07:31N 43°31' E 006°60'2 3.6
2018-Aug-13 07:01N 43°30' E 007°01'3 5.4
2018-Aug-13 06:31N 43°31' E 007°04'1 1.6
2018-Aug-13 06:00N 43°32' E 007°03'0 0.0
2018-Aug-13 05:31N 43°32' E 007°03'0 0.1
2018-Aug-13 05:00N 43°32' E 007°03'0 0.0
2018-Aug-13 04:31N 43°32' E 007°03'0 0.0
2018-Aug-13 04:00N 43°32' E 007°03'0 0.0
2018-Aug-13 03:30N 43°32' E 007°03'0 0.0
2018-Aug-13 03:01N 43°32' E 007°03'0 0.0
2018-Aug-13 02:31N 43°32' E 007°03'0 0.0
2018-Aug-13 02:00N 43°32' E 007°03'0 0.0
2018-Aug-13 01:31N 43°32' E 007°03'0 0.0
2018-Aug-13 01:00N 43°32' E 007°03'0 0.0
2018-Aug-13 00:30N 43°32' E 007°03'0 0.0
2018-Aug-13 00:01N 43°32' E 007°03'0 0.0
2018-Aug-12 23:31N 43°32' E 007°03'0 0.0
2018-Aug-12 23:00N 43°32' E 007°03'0 0.0
2018-Aug-12 22:31N 43°32' E 007°03'0 0.0
2018-Aug-12 22:00N 43°32' E 007°03'0 0.0
2018-Aug-12 21:31N 43°32' E 007°03'0 0.0
2018-Aug-12 21:00N 43°32' E 007°03'0 0.0
2018-Aug-12 20:31N 43°32' E 007°03'0 0.0
2018-Aug-12 20:01N 43°32' E 007°03'0 0.0
2018-Aug-12 19:30N 43°32' E 007°03'0 0.0
2018-Aug-12 19:01N 43°32' E 007°03'0 0.0
2018-Aug-12 18:31N 43°32' E 007°03'0 0.0
2018-Aug-12 18:01N 43°32' E 007°03'0 0.0
2018-Aug-12 17:31N 43°32' E 007°03'0 0.0
2018-Aug-12 17:01N 43°32' E 007°03'0 0.0
2018-Aug-12 16:30N 43°32' E 007°03'0 0.0
2018-Aug-12 16:00N 43°32' E 007°03'0 0.0
2018-Aug-12 15:30N 43°32' E 007°03'0 0.0
2018-Aug-12 15:00N 43°32' E 007°03'0 0.0
2018-Aug-12 14:30N 43°32' E 007°03'0 0.0
2018-Aug-12 13:59N 43°32' E 007°03'0 0.0
2018-Aug-12 13:30N 43°32' E 007°03'0 0.0
2018-Aug-12 13:00N 43°32' E 007°03'0 0.0
2018-Aug-12 12:30N 43°32' E 007°03'0 0.0
2018-Aug-12 12:00N 43°32' E 007°03'0 0.0
2018-Aug-12 11:31N 43°32' E 007°03'0 0.0
2018-Aug-12 11:00N 43°32' E 007°03'0 0.0
2018-Aug-12 10:30N 43°32' E 007°03'0 0.0
2018-Aug-12 10:01N 43°32' E 007°03'0 0.0
2018-Aug-12 09:31N 43°32' E 007°03'0 0.0
2018-Aug-12 09:01N 43°32' E 007°03'2 4.9
2018-Aug-12 08:30N 43°32' E 007°07'511.0
2018-Aug-12 08:01N 43°35' E 007°13'10 0.8
2018-Aug-11 19:41N 43°43' E 007°22'0 0.0
2018-Aug-11 17:44N 43°43' E 007°22'0 0.0
2018-Aug-11 17:18N 43°43' E 007°22'0 0.0
2018-Aug-11 16:12N 43°43' E 007°22'0 0.0
2018-Aug-11 15:58N 43°43' E 007°22'0 0.0
2018-Aug-11 15:31N 43°43' E 007°22'0 0.0
2018-Aug-11 13:54N 43°43' E 007°22'2 6.0
2018-Aug-11 13:31N 43°41' E 007°21'0 0.7
2018-Aug-11 12:56N 43°40' E 007°20'7 0.4
2018-Aug-10 16:58N 43°45' E 007°28'0 0.0
2018-Aug-10 16:30N 43°45' E 007°28'0 0.0
2018-Aug-10 16:00N 43°45' E 007°28'0 0.0
2018-Aug-10 15:29N 43°45' E 007°28'0 0.0
2018-Aug-10 14:56N 43°45' E 007°28'0 0.0
2018-Aug-10 14:30N 43°45' E 007°28'  

Dump ship's entire track history